Pont, Pennsylvania
Current Conditions -  °F | °C
As of 5:53 AM on Monday 22 Dec 2014 (Local Time) from KHZY Reporting Station
Clear Clear  
Wind Chill: 18°   Ceiling: Unl
Heat Index: 25°   Visibility: 10mi
Dew Point: 20°   Wind: 6mph
Humidity: 81%   Direction: 140°SE
Pressure: 30.14"   Gusts: NA
Location:  41.8831°N, 80.4041°W
Report Text: KHZY 221053Z AUTO 14005KT 10SM CLR M04/M07 A3014 RMK AO2 SLP216 T10391067
Loading
Personal Weather Stations






























Interactive Weather Map New forecast layout! Learn more

10-Day Weather Forecast

Advertisements
Track Severe Weather on mobile